Map

Track Data

SID SEASON NUMBER BASIN SUBBASIN NAME ISO_TIME NATURE LAT LON WMO_WIND WMO_PRES WMO_AGENCY TRACK_TYPE DIST2LAND LANDFALL IFLAG USA_AGENCY USA_ATCF_ID USA_LAT USA_LON USA_RECORD USA_STATUS USA_WIND USA_PRES USA_SSHS USA_R34_NE USA_R34_SE USA_R34_SW USA_R34_NW USA_R50_NE USA_R50_SE USA_R50_SW USA_R50_NW USA_R64_NE USA_R64_SE USA_R64_SW USA_R64_NW USA_POCI USA_ROCI USA_RMW USA_EYE TOKYO_LAT TOKYO_LON TOKYO_GRADE TOKYO_WIND TOKYO_PRES TOKYO_R50_DIR TOKYO_R50_LONG TOKYO_R50_SHORT TOKYO_R30_DIR TOKYO_R30_LONG TOKYO_R30_SHORT TOKYO_LAND CMA_LAT CMA_LON CMA_CAT CMA_WIND CMA_PRES HKO_LAT HKO_LON HKO_CAT HKO_WIND HKO_PRES NEWDELHI_LAT NEWDELHI_LON NEWDELHI_GRADE NEWDELHI_WIND NEWDELHI_PRES NEWDELHI_CI NEWDELHI_DP NEWDELHI_POCI REUNION_LAT REUNION_LON REUNION_TYPE REUNION_WIND REUNION_PRES REUNION_TNUM REUNION_CI REUNION_RMW REUNION_R34_NE REUNION_R34_SE REUNION_R34_SW REUNION_R34_NW REUNION_R50_NE REUNION_R50_SE REUNION_R50_SW REUNION_R50_NW REUNION_R64_NE REUNION_R64_SE REUNION_R64_SW REUNION_R64_NW BOM_LAT BOM_LON BOM_TYPE BOM_WIND BOM_PRES BOM_TNUM BOM_CI BOM_RMW BOM_R34_NE BOM_R34_SE BOM_R34_SW BOM_R34_NW BOM_R50_NE BOM_R50_SE BOM_R50_SW BOM_R50_NW BOM_R64_NE BOM_R64_SE BOM_R64_SW BOM_R64_NW BOM_ROCI BOM_POCI BOM_EYE BOM_POS_METHOD BOM_PRES_METHOD NADI_LAT NADI_LON NADI_CAT NADI_WIND NADI_PRES WELLINGTON_LAT WELLINGTON_LON WELLINGTON_WIND WELLINGTON_PRES DS824_LAT DS824_LON DS824_STAGE DS824_WIND DS824_PRES TD9636_LAT TD9636_LON TD9636_STAGE TD9636_WIND TD9636_PRES TD9635_LAT TD9635_LON TD9635_WIND TD9635_PRES TD9635_ROCI NEUMANN_LAT NEUMANN_LON NEUMANN_CLASS NEUMANN_WIND NEUMANN_PRES MLC_LAT MLC_LON MLC_CLASS MLC_WIND MLC_PRES USA_GUST BOM_GUST BOM_GUST_PER REUNION_GUST REUNION_GUST_PER USA_SEAHGT USA_SEARAD_NE USA_SEARAD_SE USA_SEARAD_SW USA_SEARAD_NW STORM_SPEED STORM_DIR
1874251N26289 1874 18 NA NA NOT_NAMED 1874-09-08 00:00:00 TS 25.8000 -70.6000 50 hurdat_atl main 569 569 O_____________ hurdat_atl AL051874 25.8000 -70.6000 TS 50 0 11 326
1874251N26289 1874 18 NA NA NOT_NAMED 1874-09-08 03:00:00 TS 26.2426 -70.9371 main 598 598 P_____________ AL051874 26.2426 -70.9371 TS 50 0 11 325
1874251N26289 1874 18 NA NA NOT_NAMED 1874-09-08 06:00:00 TS 26.7000 -71.3000 50 hurdat_atl main 638 638 O_____________ hurdat_atl AL051874 26.7000 -71.3000 TS 50 0 12 324
1874251N26289 1874 18 NA NA NOT_NAMED 1874-09-08 09:00:00 TS 27.1850 -71.7002 main 669 650 P_____________ AL051874 27.1850 -71.7002 TS 50 0 12 325
1874251N26289 1874 18 NA NA NOT_NAMED 1874-09-08 12:00:00 TS 27.7000 -72.1000 50 hurdat_atl main 654 646 O_____________ hurdat_atl AL051874 27.7000 -72.1000 TS 50 0 13 327
1874251N26289 1874 18 NA NA NOT_NAMED 1874-09-08 15:00:00 TS 28.2425 -72.4874 main 646 646 P_____________ AL051874 28.2425 -72.4874 TS 50 0 13 331
1874251N26289 1874 18 NA NA NOT_NAMED 1874-09-08 18:00:00 TS 28.8000 -72.8000 50 hurdat_atl main 660 659 O_____________ hurdat_atl AL051874 28.8000 -72.8000 TS 50 0 12 339
1874251N26289 1874 18 NA NA NOT_NAMED 1874-09-08 21:00:00 TS 29.3498 -72.9806 main 681 623 P_____________ AL051874 29.3498 -72.9806 TS 50 0 11 347
1874251N26289 1874 18 NA NA NOT_NAMED 1874-09-09 00:00:00 TS 29.9000 -73.1000 50 hurdat_atl main 623 570 O_____________ hurdat_atl AL051874 29.9000 -73.1000 TS 50 0 11 348
1874251N26289 1874 18 NA NA NOT_NAMED 1874-09-09 03:00:00 TS 30.4425 -73.2576 main 565 503 P_____________ AL051874 30.4425 -73.2576 TS 50 0 11 347
1874251N26289 1874 18 NA NA NOT_NAMED 1874-09-09 06:00:00 TS 31.0000 -73.4000 50 hurdat_atl main 503 447 O_____________ hurdat_atl AL051874 31.0000 -73.4000 TS 50 0 12 347
1874251N26289 1874 18 NA NA NOT_NAMED 1874-09-09 09:00:00 TS 31.5624 -73.5664 main 438 387 P_____________ AL051874 31.5624 -73.5664 TS 50 0 12 352
1874251N26289 1874 18 NA NA NOT_NAMED 1874-09-09 12:00:00 TS 32.2000 -73.6000 50 hurdat_atl main 387 347 O_____________ hurdat_atl AL051874 32.2000 -73.6000 TS 50 0 14 6
1874251N26289 1874 18 NA NA NOT_NAMED 1874-09-09 15:00:00 TS 32.9622 -73.4046 main 340 317 P_____________ AL051874 32.9622 -73.4046 TS 50 0 17 17
1874251N26289 1874 18 NA NA NOT_NAMED 1874-09-09 18:00:00 TS 33.8000 -73.0000 50 hurdat_atl main 317 294 O_____________ hurdat_atl AL051874 33.8000 -73.0000 TS 50 0 19 23
1874251N26289 1874 18 NA NA NOT_NAMED 1874-09-09 21:00:00 TS 34.6938 -72.5197 main 298 293 P_____________ AL051874 34.6938 -72.5197 TS 50 0 20 30
1874251N26289 1874 18 NA NA NOT_NAMED 1874-09-10 00:00:00 TS 35.5000 -71.8000 50 hurdat_atl main 335 335 O_____________ hurdat_atl AL051874 35.5000 -71.8000 TS 50 0 20 46
1874251N26289 1874 18 NA NA NOT_NAMED 1874-09-10 03:00:00 TS 36.0530 -70.7809 main 423 423 P_____________ AL051874 36.0530 -70.7809 TS 50 0 20 61
1874251N26289 1874 18 NA NA NOT_NAMED 1874-09-10 06:00:00 TS 36.5000 -69.6000 50 hurdat_atl main 524 524 O_____________ hurdat_atl AL051874 36.5000 -69.6000 TS 50 0 21 63
1874251N26289 1874 18 NA NA NOT_NAMED 1874-09-10 09:00:00 TS 36.9993 -68.4488 main 538 517 P_____________ AL051874 36.9993 -68.4488 TS 50 0 21 61
1874251N26289 1874 18 NA NA NOT_NAMED 1874-09-10 12:00:00 TS 37.5000 -67.3000 50 hurdat_atl main 521 515 O_____________ hurdat_atl AL051874 37.5000 -67.3000 TS 50 0 21 62
1874251N26289 1874 18 NA NA NOT_NAMED 1874-09-10 15:00:00 TS 37.9695 -66.1603 main 523 523 P_____________ AL051874 37.9695 -66.1603 TS 50 0 20 60
1874251N26289 1874 18 NA NA NOT_NAMED 1874-09-10 18:00:00 TS 38.5000 -65.1000 50 hurdat_atl main 547 496 O_____________ hurdat_atl AL051874 38.5000 -65.1000 TS 50 0 19 53
1874251N26289 1874 18 NA NA NOT_NAMED 1874-09-10 21:00:00 TS 39.1148 -64.2168 main 497 437 P_____________ AL051874 39.1148 -64.2168 TS 50 0 20 45
1874251N26289 1874 18 NA NA NOT_NAMED 1874-09-11 00:00:00 TS 39.9000 -63.3000 50 hurdat_atl main 433 392 O_____________ hurdat_atl AL051874 39.9000 -63.3000 TS 50 0 24 42
1874251N26289 1874 18 NA NA NOT_NAMED 1874-09-11 03:00:00 TS 40.9058 -62.0893 main 390 346 P_____________ AL051874 40.9058 -62.0893 TS 50 0 28 42
1874251N26289 1874 18 NA NA NOT_NAMED 1874-09-11 06:00:00 TS 42.0000 -60.8000 50 hurdat_atl main 340 268 O_____________ hurdat_atl AL051874 42.0000 -60.8000 TS 50 0 28 41
1874251N26289 1874 18 NA NA NOT_NAMED 1874-09-11 09:00:00 TS 43.0444 -59.5893 main 272 227 P_____________ AL051874 43.0444 -59.5893 TS 50 0 26 40
1874251N26289 1874 18 NA NA NOT_NAMED 1874-09-11 12:00:00 TS 44.0000 -58.5000 50 hurdat_atl main 232 218 O_____________ hurdat_atl AL051874 44.0000 -58.5000 TS 50 0 23 39
1874251N26289 1874 18 NA NA NOT_NAMED 1874-09-11 15:00:00 TS 44.7980 -57.5967 main 224 167 P_____________ AL051874 44.7980 -57.5967 TS 50 0 19 39
1874251N26289 1874 18 NA NA NOT_NAMED 1874-09-11 18:00:00 TS 45.5000 -56.8000 50 hurdat_atl main 167 O_____________ hurdat_atl AL051874 45.5000 -56.8000 TS 50 0 18 39

About IBTrACS Database

This database is a web-friendly format of International Best Track Archive for Climate Stewardship (IBTrACS), a global best track data archive curated by NOAA dating back to 1842.

Updated: 2021-11-26